Time;durP1;ratioP1;P1;durP2;ratioP2;P2;SDS_P1;SDS_P2;PMS_P1;PMS_P2;Temp;Humidity;BMP_temperature;BMP_pressure;BME280_temperature;BME280_humidity;BME280_pressure;Samples;Min_cycle;Max_cycle;Signal;HPM_P1;HPM_P2
2024/04/18 00:00:30;;;;;;;10.90;7.80;;;;;;;9.12;58.42;98253.72;7362089;26;20246;-82
2024/04/18 00:03:56;;;;;;;10.83;7.23;;;;;;;8.63;58.50;98228.31;7380199;26;20221;-81
2024/04/18 00:07:19;;;;;;;8.53;7.40;;;;;;;8.72;59.09;98254.78;7377131;26;20744;-83
2024/04/18 00:10:43;;;;;;;10.70;8.43;;;;;;;9.00;59.68;98255.38;7376142;26;20242;-82
2024/04/18 00:14:06;;;;;;;9.83;8.00;;;;;;;9.08;59.32;98247.09;7352122;26;20289;-83
2024/04/18 00:17:26;;;;;;;9.97;7.47;;;;;;;9.40;58.27;98257.78;7327824;27;20230;-83
2024/04/18 00:20:52;;;;;;;8.83;7.87;;;;;;;9.01;59.77;98253.53;7328002;26;20585;-83
2024/04/18 00:24:13;;;;;;;8.70;7.90;;;;;;;9.22;59.37;98235.28;7328070;27;20285;-82
2024/04/18 00:27:36;;;;;;;10.57;8.20;;;;;;;9.48;59.16;98251.34;7347176;26;20245;-83
2024/04/18 00:30:56;;;;;;;9.97;8.70;;;;;;;9.51;58.78;98257.13;7375848;26;20241;-83
2024/04/18 00:34:19;;;;;;;13.00;8.43;;;;;;;9.38;58.92;98259.88;7375175;26;20624;-83
2024/04/18 00:37:43;;;;;;;9.97;8.93;;;;;;;9.37;59.65;98263.59;7374613;26;20229;-83
2024/04/18 00:41:06;;;;;;;11.53;10.07;;;;;;;9.26;59.71;98244.56;7377444;26;20284;-84
2024/04/18 00:44:30;;;;;;;13.73;9.57;;;;;;;9.33;59.37;98248.09;7379281;26;20230;-84
2024/04/18 00:47:53;;;;;;;13.37;9.40;;;;;;;9.13;60.09;98255.38;7351015;26;20238;-83
2024/04/18 00:51:13;;;;;;;10.20;9.20;;;;;;;9.06;60.06;98265.31;7331573;26;20247;-84
2024/04/18 00:54:40;;;;;;;19.47;9.87;;;;;;;9.03;60.78;98253.09;7331723;27;20257;-82
2024/04/18 00:58:00;;;;;;;13.03;9.57;;;;;;;9.13;60.52;98244.59;7330871;27;20234;-83
2024/04/18 01:01:25;;;;;;;11.73;9.10;;;;;;;8.96;60.36;98254.13;7331590;26;20235;-83
2024/04/18 01:04:46;;;;;;;11.53;10.03;;;;;;;9.36;60.58;98250.34;7331441;27;20567;-82
2024/04/18 01:08:09;;;;;;;11.93;9.50;;;;;;;9.56;60.15;98264.59;7351027;26;20740;-83
2024/04/18 01:11:32;;;;;;;10.30;9.27;;;;;;;9.73;59.24;98231.59;7380371;26;20241;-82
2024/04/18 01:14:55;;;;;;;13.07;9.67;;;;;;;9.50;59.61;98252.00;7379707;26;20284;-81
2024/04/18 01:18:16;;;;;;;11.03;8.90;;;;;;;9.73;58.99;98246.91;7380326;26;20237;-81
2024/04/18 01:21:39;;;;;;;10.53;9.43;;;;;;;9.70;59.22;98248.16;7380488;26;20280;-84
2024/04/18 01:25:02;;;;;;;9.90;8.27;;;;;;;9.77;59.12;98245.47;7377082;26;20234;-84
2024/04/18 01:28:25;;;;;;;9.90;8.47;;;;;;;9.74;59.37;98267.44;7376897;26;20573;-84
2024/04/18 01:31:48;;;;;;;11.40;9.27;;;;;;;9.71;58.94;98252.53;7366208;26;20644;-82
2024/04/18 01:35:09;;;;;;;10.63;9.10;;;;;;;9.81;58.47;98265.53;7330035;27;20780;-84
2024/04/18 01:38:32;;;;;;;12.17;9.20;;;;;;;9.72;58.62;98259.56;7329465;27;20219;-84
2024/04/18 01:41:55;;;;;;;13.63;11.00;;;;;;;9.86;58.46;98263.84;7345586;26;20600;-84
2024/04/18 01:45:19;;;;;;;10.30;9.30;;;;;;;9.73;59.24;98255.81;7377575;26;20226;-83
2024/04/18 01:48:42;;;;;;;11.33;8.30;;;;;;;9.77;58.99;98269.69;7360905;26;20247;-84
2024/04/18 01:52:03;;;;;;;11.70;9.93;;;;;;;9.68;59.98;98266.41;7328015;26;20721;-84
2024/04/18 01:55:26;;;;;;;14.87;9.60;;;;;;;9.92;59.43;98270.25;7330103;27;20250;-83
2024/04/18 01:58:47;;;;;;;11.73;10.27;;;;;;;9.92;58.92;98272.94;7328117;27;20258;-83
2024/04/18 02:02:13;;;;;;;11.90;10.03;;;;;;;9.84;59.44;98273.16;7329158;26;20227;-84
2024/04/18 02:05:34;;;;;;;13.37;10.30;;;;;;;9.60;60.31;98269.34;7328827;27;20273;-84
2024/04/18 02:08:57;;;;;;;13.07;10.37;;;;;;;9.82;59.69;98268.03;7328483;27;20576;-84
2024/04/18 02:12:20;;;;;;;11.67;10.23;;;;;;;9.89;60.26;98274.19;7329232;26;20329;-84
2024/04/18 02:15:43;;;;;;;14.10;10.63;;;;;;;9.80;59.78;98270.09;7328646;27;20263;-84
2024/04/18 02:19:10;;;;;;;16.50;11.33;;;;;;;9.41;60.71;98286.38;7328212;27;20239;-84
2024/04/18 02:22:33;;;;;;;15.57;11.87;;;;;;;9.32;61.52;98286.78;7370135;26;20767;-84
2024/04/18 02:25:53;;;;;;;15.40;11.60;;;;;;;9.98;60.00;98288.25;7376296;26;20229;-83
2024/04/18 02:29:16;;;;;;;15.20;11.90;;;;;;;10.03;60.00;98294.66;7375703;26;20272;-84
2024/04/18 02:32:40;;;;;;;12.83;11.03;;;;;;;10.13;59.75;98283.44;7376144;26;20242;-84
2024/04/18 02:36:03;;;;;;;12.17;10.90;;;;;;;10.15;59.39;98294.84;7376109;26;20226;-84
2024/04/18 02:39:27;;;;;;;13.97;11.13;;;;;;;10.16;59.49;98283.03;7375246;26;20237;-84
2024/04/18 02:42:47;;;;;;;13.53;12.13;;;;;;;10.04;59.70;98282.03;7348260;26;20334;-84
2024/04/18 02:46:10;;;;;;;13.70;11.60;;;;;;;10.04;59.49;98285.53;7360698;26;20246;-83
2024/04/18 02:49:33;;;;;;;13.00;11.43;;;;;;;10.27;59.18;98276.94;7329230;26;20263;-84
2024/04/18 02:52:59;;;;;;;14.93;11.00;;;;;;;10.40;58.09;98279.56;7332972;27;20222;-84
2024/04/18 02:56:22;;;;;;;12.67;10.57;;;;;;;10.33;58.54;98281.47;7347270;26;20219;-84
2024/04/18 02:59:46;;;;;;;13.87;11.10;;;;;;;10.01;59.75;98279.72;7374949;26;20267;-84
2024/04/18 03:03:09;;;;;;;16.00;11.77;;;;;;;9.85;59.77;98293.66;7370997;26;20667;-84
2024/04/18 03:06:32;;;;;;;17.20;12.20;;;;;;;9.72;60.11;98280.25;7372612;26;20280;-84
2024/04/18 03:09:58;;;;;;;17.07;13.07;;;;;;;9.65;61.58;98266.84;7374496;26;20360;-83
2024/04/18 03:13:18;;;;;;;15.63;13.33;;;;;;;9.62;61.41;98288.78;7362741;26;20239;-83
2024/04/18 03:16:42;;;;;;;24.63;15.30;;;;;;;9.68;60.98;98281.75;7327801;27;20230;-83
2024/04/18 03:20:02;;;;;;;18.17;15.10;;;;;;;9.66;61.14;98286.50;7373015;26;20241;-83
2024/04/18 03:23:25;;;;;;;16.27;12.83;;;;;;;10.12;60.69;98282.63;7367768;26;20279;-84
2024/04/18 03:26:54;;;;;;;17.63;13.53;;;;;;;10.29;60.01;98283.78;7375199;26;20735;-84
2024/04/18 03:30:15;;;;;;;16.70;12.33;;;;;;;10.24;60.15;98293.53;7374896;26;20637;-83
2024/04/18 03:33:38;;;;;;;14.80;12.37;;;;;;;10.26;60.58;98277.97;7333985;26;20246;-84
2024/04/18 03:37:01;;;;;;;16.03;11.97;;;;;;;10.29;60.14;98282.94;7327663;27;20594;-84
2024/04/18 03:40:24;;;;;;;13.77;11.93;;;;;;;10.41;59.75;98283.91;7327182;26;20238;-84
2024/04/18 03:43:50;;;;;;;14.77;11.53;;;;;;;10.33;60.11;98284.16;7359037;26;20234;-84
2024/04/18 03:47:13;;;;;;;15.40;11.97;;;;;;;10.40;59.68;98283.06;7373944;26;20238;-84
2024/04/18 03:50:36;;;;;;;14.63;12.13;;;;;;;10.37;59.92;98291.59;7375273;26;20237;-84
2024/04/18 03:53:57;;;;;;;11.67;10.30;;;;;;;10.48;59.75;98299.00;7374737;26;20234;-84
2024/04/18 03:57:20;;;;;;;14.57;11.90;;;;;;;10.44;59.65;98300.47;7374356;26;20264;-84
2024/04/18 04:00:46;;;;;;;13.47;11.93;;;;;;;10.46;59.51;98294.88;7374595;26;20626;-84
2024/04/18 04:04:06;;;;;;;15.23;11.73;;;;;;;10.44;58.79;98291.53;7370607;26;20249;-83
2024/04/18 04:07:29;;;;;;;17.73;13.10;;;;;;;9.46;60.87;98291.91;7362114;26;20235;-84
2024/04/18 04:10:53;;;;;;;15.80;12.90;;;;;;;10.00;61.04;98288.84;7327223;26;20285;-84
2024/04/18 04:14:16;;;;;;;19.03;12.83;;;;;;;10.36;60.47;98310.66;7326518;27;20718;-83
2024/04/18 04:17:43;;;;;;;18.70;12.47;;;;;;;10.48;59.92;98323.25;7327631;27;20269;-83
2024/04/18 04:21:07;;;;;;;15.80;11.63;;;;;;;10.47;59.81;98316.22;7343643;26;20346;-83
2024/04/18 04:24:30;;;;;;;15.03;12.50;;;;;;;10.47;60.21;98323.47;7373800;26;20292;-83
2024/04/18 04:27:54;;;;;;;16.13;12.03;;;;;;;10.45;60.32;98320.16;7373738;26;20217;-83
2024/04/18 04:31:17;;;;;;;16.87;13.13;;;;;;;10.37;60.40;98344.66;7377290;26;20645;-81
2024/04/18 04:34:40;;;;;;;18.17;14.10;;;;;;;10.45;60.18;98349.81;7377778;26;20272;-81
2024/04/18 04:38:03;;;;;;;16.90;13.97;;;;;;;10.27;60.22;98339.72;7375121;26;20242;-81
2024/04/18 04:41:26;;;;;;;17.33;13.40;;;;;;;10.24;60.92;98352.81;7379066;26;20297;-82
2024/04/18 04:44:47;;;;;;;16.17;13.53;;;;;;;10.55;60.76;98351.00;7375526;26;20268;-82
2024/04/18 04:48:10;;;;;;;19.47;14.00;;;;;;;10.52;60.11;98356.00;7326970;27;20219;-82
2024/04/18 04:51:36;;;;;;;18.73;14.47;;;;;;;10.31;61.06;98365.22;7325453;26;20254;-81
2024/04/18 04:54:56;;;;;;;19.70;14.67;;;;;;;10.35;60.64;98354.84;7349760;26;20594;-81
2024/04/18 04:58:19;;;;;;;18.13;14.30;;;;;;;10.28;60.99;98356.72;7359794;26;20783;-80
2024/04/18 05:01:43;;;;;;;17.00;13.83;;;;;;;10.56;60.36;98362.63;7360154;26;20288;-81
2024/04/18 05:05:03;;;;;;;21.07;13.97;;;;;;;10.63;59.81;98369.59;7374625;26;20335;-80
2024/04/18 05:08:29;;;;;;;16.57;14.27;;;;;;;10.83;59.75;98374.88;7372404;26;20249;-80
2024/04/18 05:11:50;;;;;;;16.47;13.20;;;;;;;10.82;59.68;98365.97;7327729;26;20243;-80
2024/04/18 05:15:13;;;;;;;16.57;13.60;;;;;;;10.95;59.59;98386.63;7327427;27;20220;-79
2024/04/18 05:18:34;;;;;;;16.93;12.87;;;;;;;10.83;59.59;98386.50;7326163;27;20336;-80
2024/04/18 05:21:57;;;;;;;19.07;13.73;;;;;;;10.92;59.33;98389.78;7357443;26;20253;-79
2024/04/18 05:25:22;;;;;;;15.97;12.40;;;;;;;10.65;59.95;98390.97;7375124;26;20226;-80
2024/04/18 05:32:21;;;;;;;10.83;9.73;;;;;;;10.24;59.39;98401.28;7377547;26;20319;-79
2024/04/18 05:35:44;;;;;;;11.30;10.10;;;;;;;10.02;60.18;98411.50;7379000;26;20222;-81
2024/04/18 05:39:08;;;;;;;12.10;10.50;;;;;;;10.04;59.13;98398.66;7378588;26;20221;-81
2024/04/18 05:42:34;;;;;;;11.47;10.17;;;;;;;9.90;59.75;98410.47;7332017;26;20828;-80
2024/04/18 05:45:57;;;;;;;12.23;10.93;;;;;;;10.07;59.09;98408.19;7378283;26;20230;-79
2024/04/18 05:49:21;;;;;;;13.70;9.87;;;;;;;10.06;59.23;98423.53;7377809;26;20281;-81
2024/04/18 05:52:44;;;;;;;11.07;9.97;;;;;;;10.38;58.98;98427.97;7347694;26;20239;-79
2024/04/18 05:56:07;;;;;;;11.93;9.27;;;;;;;10.28;58.14;98435.69;7376675;26;20743;-80
2024/04/18 05:59:33;;;;;;;13.13;9.77;;;;;;;10.33;58.28;98443.94;7378204;26;20233;-80
2024/04/18 06:02:56;;;;;;;11.37;10.17;;;;;;;10.49;57.69;98440.78;7376811;26;20238;-79
2024/04/18 06:06:19;;;;;;;10.67;9.33;;;;;;;10.29;57.78;98445.44;7394032;26;20222;-81
2024/04/18 06:09:42;;;;;;;9.70;8.60;;;;;;;10.16;57.93;98442.75;7383694;26;20771;-79
2024/04/18 06:13:07;;;;;;;9.77;7.63;;;;;;;10.71;56.85;98452.94;7378546;26;20225;-79
2024/04/18 06:16:34;;;;;;;9.20;8.30;;;;;;;10.88;56.54;98461.38;7369989;26;20279;-79
2024/04/18 06:19:57;;;;;;;10.00;9.10;;;;;;;10.97;56.16;98463.59;7370693;26;20249;-80
2024/04/18 06:23:21;;;;;;;10.73;8.77;;;;;;;10.45;56.32;98461.13;7363371;26;20239;-79
2024/04/18 06:26:44;;;;;;;9.57;8.00;;;;;;;10.70;56.87;98464.75;7344260;26;20243;-79
2024/04/18 06:30:08;;;;;;;8.93;8.13;;;;;;;10.70;56.24;98472.84;7377129;26;20280;-79
2024/04/18 06:33:34;;;;;;;8.70;7.90;;;;;;;11.07;56.04;98468.50;7378161;26;20230;-81
2024/04/18 06:36:57;;;;;;;8.13;7.43;;;;;;;11.08;55.26;98480.94;7371316;26;20230;-79
2024/04/18 06:40:23;;;;;;;8.47;7.67;;;;;;;10.84;55.34;98487.09;7358738;26;20753;-79
2024/04/18 06:43:46;;;;;;;8.10;7.40;;;;;;;11.07;55.22;98490.94;7362289;26;20238;-79
2024/04/18 06:47:09;;;;;;;8.80;7.27;;;;;;;10.98;55.95;98497.59;7380223;26;20221;-80
2024/04/18 06:50:35;;;;;;;6.00;5.50;;;;;;;10.74;55.51;98494.84;7380004;26;20292;-79
2024/04/18 06:53:58;;;;;;;6.20;5.60;;;;;;;10.22;56.91;98465.34;7327516;27;20230;-79
2024/04/18 06:57:21;;;;;;;5.93;5.33;;;;;;;10.68;55.77;98509.16;7329420;26;20247;-79
2024/04/18 07:00:46;;;;;;;6.30;5.80;;;;;;;10.88;55.51;98512.59;7347561;26;20722;-81
2024/04/18 07:04:09;;;;;;;8.77;7.00;;;;;;;10.87;55.32;98514.47;7344965;26;20254;-80
2024/04/18 07:07:35;;;;;;;5.67;5.17;;;;;;;10.96;55.38;98506.97;7354878;26;20223;-81
2024/04/18 07:10:59;;;;;;;6.17;5.57;;;;;;;11.19;55.07;98518.03;7355931;26;20767;-81
2024/04/18 07:14:22;;;;;;;6.40;5.23;;;;;;;11.22;54.67;98514.94;7344667;26;20250;-82
2024/04/18 07:17:45;;;;;;;5.83;5.33;;;;;;;11.31;54.78;98522.56;7350078;26;20226;-86
2024/04/18 07:21:08;;;;;;;5.23;4.73;;;;;;;11.40;55.25;98521.25;7370479;26;20242;-80
2024/04/18 07:24:34;;;;;;;5.87;5.13;;;;;;;11.67;53.34;98519.22;7369302;26;20321;-80
2024/04/18 07:27:57;;;;;;;17.87;14.50;;;;;;;11.59;53.77;98527.59;7343831;26;20282;-81
2024/04/18 07:31:21;;;;;;;6.57;5.93;;;;;;;11.77;53.50;98528.50;7357631;26;20284;-84
2024/04/18 07:34:44;;;;;;;6.17;5.57;;;;;;;11.35;54.55;98539.97;7345783;26;20238;-80
2024/04/18 07:38:07;;;;;;;7.73;5.77;;;;;;;11.70;53.98;98533.13;7362224;26;20288;-86
2024/04/18 07:41:33;;;;;;;5.43;4.90;;;;;;;12.03;52.89;98536.41;7373676;26;20602;-84
2024/04/18 07:44:56;;;;;;;5.10;4.63;;;;;;;12.26;52.73;98554.69;7373256;26;20277;-81
2024/04/18 07:48:20;;;;;;;5.80;5.30;;;;;;;12.01;51.68;98540.38;7366089;26;20243;-82
2024/04/18 07:51:43;;;;;;;4.90;4.50;;;;;;;12.17;51.02;98554.13;7328406;26;20234;-82
2024/04/18 07:55:06;;;;;;;4.97;4.57;;;;;;;12.43;51.65;98561.19;7374069;26;20277;-82
2024/04/18 07:58:32;;;;;;;7.13;5.60;;;;;;;12.09;52.27;98565.22;7375282;26;20812;-81
2024/04/18 08:01:56;;;;;;;6.27;5.67;;;;;;;11.11;53.10;98578.47;7375806;26;20537;-80
2024/04/18 08:05:19;;;;;;;7.37;6.50;;;;;;;10.99;54.51;98571.28;7369490;26;20237;-81
2024/04/18 08:08:42;;;;;;;9.17;7.43;;;;;;;11.54;54.21;98593.03;7341935;26;20249;-82
2024/04/18 08:12:06;;;;;;;8.77;7.07;;;;;;;11.35;53.37;98593.13;7369564;26;20239;-81
2024/04/18 08:15:33;;;;;;;7.20;6.50;;;;;;;11.57;52.58;98592.56;7376264;26;20739;-81
2024/04/18 08:18:56;;;;;;;8.93;7.37;;;;;;;11.26;53.97;98606.03;7377326;26;20731;-81
2024/04/18 08:22:19;;;;;;;7.43;6.63;;;;;;;10.47;55.34;98598.38;7375372;26;20238;-82
2024/04/18 08:25:42;;;;;;;8.57;7.67;;;;;;;11.41;54.36;98616.56;7375874;26;20331;-81
2024/04/18 08:29:05;;;;;;;7.37;6.10;;;;;;;10.92;52.57;98617.16;7375110;26;20313;-82
2024/04/18 08:32:31;;;;;;;7.73;6.87;;;;;;;11.11;52.61;98613.53;7375450;26;20598;-80
2024/04/18 08:35:54;;;;;;;7.33;5.90;;;;;;;11.47;50.87;98613.84;7375982;26;20300;-80
2024/04/18 08:39:18;;;;;;;6.57;5.90;;;;;;;12.01;51.00;98624.13;7381567;26;20284;-82
2024/04/18 08:42:41;;;;;;;6.87;6.27;;;;;;;12.45;49.01;98610.47;7380105;26;20272;-81
2024/04/18 08:46:05;;;;;;;6.57;5.97;;;;;;;12.21;49.04;98620.22;7369130;26;20571;-80
2024/04/18 08:49:32;;;;;;;7.13;6.20;;;;;;;12.69;48.27;98620.44;7365704;26;20288;-80
2024/04/18 08:52:57;;;;;;;6.83;6.23;;;;;;;12.95;48.31;98631.00;7374422;26;20231;-79
2024/04/18 08:56:21;;;;;;;7.43;6.73;;;;;;;13.33;48.71;98607.28;7337026;26;20286;-79
2024/04/18 08:59:45;;;;;;;7.03;6.33;;;;;;;13.30;46.76;98618.53;7365728;26;20240;-79
2024/04/18 09:03:09;;;;;;;7.77;6.07;;;;;;;13.40;46.25;98635.09;7383084;26;20231;-80
2024/04/18 09:06:35;;;;;;;6.63;5.33;;;;;;;13.22;46.34;98637.81;7380133;26;20232;-81
2024/04/18 09:10:07;;;;;;;8.07;7.17;;;;;;;13.60;46.55;98633.78;7352304;26;20243;-81
2024/04/18 09:13:31;;;;;;;7.67;6.93;;;;;;;14.53;45.01;98635.75;7333487;27;20221;-80
2024/04/18 09:16:54;;;;;;;7.63;6.83;;;;;;;14.09;44.91;98638.91;7365164;26;21074;-81
2024/04/18 09:20:17;;;;;;;8.73;7.53;;;;;;;13.66;45.80;98645.59;7379187;26;20788;-81
2024/04/18 09:23:43;;;;;;;8.03;6.93;;;;;;;13.88;45.14;98625.06;7380994;26;20271;-81
2024/04/18 09:27:06;;;;;;;7.50;6.53;;;;;;;14.25;44.80;98640.16;7380724;26;20762;-80
2024/04/18 09:30:29;;;;;;;9.37;7.67;;;;;;;13.86;45.66;98640.75;7380205;26;20248;-80
2024/04/18 09:33:53;;;;;;;7.60;6.87;;;;;;;13.63;45.95;98635.22;7381101;26;20280;-80
2024/04/18 09:37:18;;;;;;;6.80;6.20;;;;;;;14.52;44.90;98631.38;7380039;26;20630;-79
2024/04/18 09:40:45;;;;;;;7.10;6.50;;;;;;;15.66;42.72;98631.53;7380579;26;20288;-80
2024/04/18 09:44:15;;;;;;;7.87;6.90;;;;;;;15.82;41.35;98636.19;7391695;26;20248;-81
2024/04/18 09:47:38;;;;;;;6.77;6.17;;;;;;;16.83;39.60;98628.75;7390326;26;20734;-81
2024/04/18 09:51:01;;;;;;;7.90;7.10;;;;;;;15.76;41.66;98640.69;7383579;26;20254;-80
2024/04/18 09:54:25;;;;;;;7.30;6.60;;;;;;;16.17;40.84;98637.66;7368865;26;20241;-80
2024/04/18 09:57:51;;;;;;;6.87;6.17;;;;;;;16.86;38.86;98620.91;7334568;27;20281;-79
2024/04/18 10:01:16;;;;;;;6.60;5.90;;;;;;;14.70;41.46;98641.31;7360404;26;20242;-81
2024/04/18 10:04:40;;;;;;;6.53;5.93;;;;;;;13.42;47.32;98668.19;7361586;26;20239;-77
2024/04/18 10:08:03;;;;;;;7.10;5.97;;;;;;;12.91;49.96;98683.88;7373282;26;20267;-79
2024/04/18 10:11:28;;;;;;;8.30;6.03;;;;;;;12.99;51.60;98678.25;7362284;26;20586;-80
2024/04/18 10:14:53;;;;;;;7.07;6.40;;;;;;;12.63;54.33;98675.44;7349780;26;20229;-78
2024/04/18 10:18:17;;;;;;;6.83;5.57;;;;;;;12.49;52.75;98682.81;7354684;26;20236;-78
2024/04/18 10:21:40;;;;;;;6.00;5.40;;;;;;;12.61;52.24;98689.16;7349072;26;20282;-80
2024/04/18 10:25:05;;;;;;;6.30;5.67;;;;;;;12.62;52.87;98687.31;7337757;26;20278;-78
2024/04/18 10:28:30;;;;;;;5.50;4.93;;;;;;;12.44;52.84;98706.97;7325594;27;20267;-79
2024/04/18 10:31:56;;;;;;;3.80;3.50;;;;;;;11.41;53.96;98714.56;7326508;26;20236;-78
2024/04/18 10:35:20;;;;;;;3.97;3.60;;;;;;;10.98;56.58;98731.47;7326452;27;20223;-80
2024/04/18 10:38:45;;;;;;;3.63;3.30;;;;;;;11.23;55.37;98732.47;7325804;27;20250;-79
2024/04/18 10:42:09;;;;;;;3.50;3.20;;;;;;;11.37;55.99;98748.41;7362275;26;20251;-78
2024/04/18 10:45:33;;;;;;;3.50;3.20;;;;;;;10.86;56.78;98731.25;7374606;26;20338;-78
2024/04/18 10:49:00;;;;;;;3.83;3.53;;;;;;;11.26;57.53;98732.88;7373488;26;20229;-80
2024/04/18 10:52:23;;;;;;;3.70;3.40;;;;;;;11.84;55.15;98728.34;7374070;26;20288;-79
2024/04/18 10:55:46;;;;;;;4.27;3.87;;;;;;;12.28;54.56;98731.84;7374275;26;20259;-78
2024/04/18 10:59:10;;;;;;;3.70;3.40;;;;;;;12.83;53.06;98733.72;7373143;26;20230;-79
2024/04/18 11:02:33;;;;;;;4.63;4.07;;;;;;;13.47;53.59;98717.94;7373739;26;20230;-78
2024/04/18 11:05:59;;;;;;;4.27;3.97;;;;;;;13.33;52.00;98721.00;7373671;26;20264;-78
2024/04/18 11:09:22;;;;;;;4.17;3.83;;;;;;;13.10;54.50;98713.50;7373323;26;20227;-78
2024/04/18 11:12:45;;;;;;;3.87;3.57;;;;;;;12.64;53.21;98720.34;7373619;26;20242;-79
2024/04/18 11:16:09;;;;;;;4.30;3.90;;;;;;;13.60;54.04;98722.34;7373616;26;20307;-78
2024/04/18 11:19:32;;;;;;;5.13;3.93;;;;;;;14.11;50.24;98701.06;7373294;26;20238;-79
2024/04/18 11:22:58;;;;;;;3.93;3.63;;;;;;;13.78;51.05;98712.34;7373630;26;20263;-78
2024/04/18 11:26:22;;;;;;;5.57;5.00;;;;;;;14.50;51.45;98717.59;7373423;26;20727;-78
2024/04/18 11:29:48;;;;;;;5.60;4.97;;;;;;;14.22;50.63;98714.69;7372179;26;20226;-79
2024/04/18 11:33:13;;;;;;;7.27;6.03;;;;;;;13.36;53.51;98713.25;7325694;27;20907;-78
2024/04/18 11:36:36;;;;;;;5.70;4.67;;;;;;;14.45;50.19;98716.66;7325530;27;21032;-78
2024/04/18 11:40:02;;;;;;;6.97;6.37;;;;;;;14.15;50.98;98694.94;7324901;26;20800;-79
2024/04/18 11:43:25;;;;;;;7.37;6.33;;;;;;;14.05;52.07;98693.84;7325300;27;20222;-78
2024/04/18 11:46:50;;;;;;;6.90;6.27;;;;;;;13.80;50.63;98715.63;7324967;27;20582;-80
2024/04/18 11:50:13;;;;;;;6.40;5.80;;;;;;;14.79;49.62;98716.72;7324222;26;20266;-78
2024/04/18 11:53:36;;;;;;;6.43;5.57;;;;;;;15.30;47.51;98708.72;7324853;27;20269;-79
2024/04/18 11:57:02;;;;;;;6.70;5.30;;;;;;;15.22;47.78;98706.34;7324675;27;20574;-78
2024/04/18 12:00:26;;;;;;;7.27;5.97;;;;;;;14.51;49.49;98715.72;7324264;26;20338;-79
2024/04/18 12:03:49;;;;;;;6.40;5.80;;;;;;;15.07;49.07;98706.00;7326656;26;20234;-78
2024/04/18 12:07:12;;;;;;;7.20;5.80;;;;;;;15.07;48.06;98710.59;7326108;26;20237;-79
2024/04/18 12:10:35;;;;;;;6.17;5.30;;;;;;;13.75;49.25;98698.41;7324961;26;20242;-78
2024/04/18 12:14:01;;;;;;;5.23;4.73;;;;;;;13.85;51.92;98723.06;7324645;27;20245;-78
2024/04/18 12:17:24;;;;;;;5.47;4.70;;;;;;;13.34;50.82;98728.06;7322709;27;20232;-78
2024/04/18 12:20:47;;;;;;;3.87;3.57;;;;;;;13.04;52.26;98737.94;7352757;26;20273;-78
2024/04/18 12:24:11;;;;;;;4.00;3.70;;;;;;;13.23;53.10;98739.63;7348656;26;20290;-77
2024/04/18 12:27:34;;;;;;;4.27;3.53;;;;;;;13.39;52.25;98734.44;7371271;26;20262;-78
2024/04/18 12:31:00;;;;;;;4.03;3.73;;;;;;;14.27;49.25;98725.66;7371406;26;20579;-79
2024/04/18 12:34:23;;;;;;;4.27;3.87;;;;;;;15.26;47.02;98726.53;7371218;26;20228;-78
2024/04/18 12:37:46;;;;;;;4.40;3.67;;;;;;;14.76;45.58;98725.31;7375364;26;20765;-79
2024/04/18 12:41:09;;;;;;;4.60;3.67;;;;;;;14.53;46.14;98738.00;7366083;26;20583;-78
2024/04/18 12:44:32;;;;;;;4.03;3.60;;;;;;;14.73;45.31;98722.25;7375934;26;20228;-78
2024/04/18 12:48:00;;;;;;;4.07;3.67;;;;;;;14.46;45.96;98726.44;7349652;26;20263;-79
2024/04/18 12:51:23;;;;;;;6.27;4.20;;;;;;;14.14;47.57;98733.97;7356860;26;20281;-78
2024/04/18 12:54:46;;;;;;;4.03;3.70;;;;;;;13.84;47.24;98743.09;7357372;26;20233;-78
2024/04/18 12:58:10;;;;;;;4.67;4.27;;;;;;;14.12;49.24;98721.69;7356478;26;20817;-80
2024/04/18 13:01:33;;;;;;;6.20;4.57;;;;;;;14.11;50.78;98742.53;7353054;26;20297;-78
2024/04/18 13:04:58;;;;;;;4.77;4.33;;;;;;;14.43;48.40;98730.44;7353422;26;20287;-78
2024/04/18 13:08:22;;;;;;;5.97;4.47;;;;;;;14.24;49.75;98741.56;7338908;26;20244;-79
2024/04/18 13:11:45;;;;;;;4.83;4.27;;;;;;;13.85;49.13;98736.63;7357749;26;20253;-78
2024/04/18 13:15:08;;;;;;;5.03;4.63;;;;;;;14.47;50.92;98725.38;7373790;26;20244;-79
2024/04/18 13:18:31;;;;;;;5.50;4.70;;;;;;;13.91;50.26;98741.13;7360361;26;20236;-79
2024/04/18 13:21:57;;;;;;;5.23;4.73;;;;;;;14.98;47.13;98737.28;7356900;26;20317;-79
2024/04/18 13:25:20;;;;;;;5.60;4.77;;;;;;;14.99;48.92;98732.69;7356975;26;20591;-79
2024/04/18 13:28:44;;;;;;;6.50;4.87;;;;;;;15.01;48.12;98723.25;7341353;26;20342;-79
2024/04/18 13:32:08;;;;;;;6.27;4.80;;;;;;;15.16;47.33;98717.34;7372221;26;20271;-79
2024/04/18 13:35:31;;;;;;;4.73;4.23;;;;;;;15.27;46.84;98724.66;7367128;26;20281;-80
2024/04/18 13:38:57;;;;;;;5.20;4.47;;;;;;;14.08;48.78;98715.06;7342178;26;20229;-81
2024/04/18 13:42:20;;;;;;;4.03;3.70;;;;;;;14.24;48.51;98709.03;7370477;26;20248;-79
2024/04/18 13:45:44;;;;;;;3.80;3.40;;;;;;;14.72;45.48;98713.28;7357020;26;20233;-79
2024/04/18 13:49:08;;;;;;;3.13;2.80;;;;;;;14.82;45.45;98720.84;7353672;26;20324;-80
2024/04/18 13:52:31;;;;;;;3.80;3.20;;;;;;;15.25;43.73;98719.47;7347018;26;20298;-79
2024/04/18 13:56:00;;;;;;;4.87;3.20;;;;;;;14.46;46.00;98735.38;7350551;26;20233;-80
2024/04/18 13:59:23;;;;;;;2.60;2.40;;;;;;;14.07;45.45;98741.34;7341464;26;20327;-79
2024/04/18 14:02:46;;;;;;;2.77;2.47;;;;;;;13.01;47.40;98752.75;7341904;26;20247;-79
2024/04/18 14:06:10;;;;;;;2.50;2.30;;;;;;;12.55;50.40;98752.25;7333572;26;20782;-80
2024/04/18 14:09:40;;;;;;;2.23;2.07;;;;;;;13.15;48.86;98748.88;7341065;26;20282;-81
2024/04/18 14:13:07;;;;;;;2.07;1.97;;;;;;;13.80;46.92;98744.63;7340826;26;20299;-80
2024/04/18 14:20:13;;;;;;;2.83;2.50;;;;;;;14.44;49.43;98733.97;7360340;26;20253;-81
2024/04/18 14:23:36;;;;;;;4.40;3.27;;;;;;;14.28;47.42;98727.31;7364744;26;20233;-80
2024/04/18 14:26:59;;;;;;;3.90;3.50;;;;;;;14.69;47.33;98726.50;7368903;26;20242;-82
2024/04/18 14:30:25;;;;;;;4.17;3.60;;;;;;;14.38;47.82;98741.16;7357484;26;20366;-80
2024/04/18 14:33:52;;;;;;;4.93;3.67;;;;;;;14.78;46.85;98746.81;7354517;26;20291;-79
2024/04/18 14:37:16;;;;;;;4.37;2.53;;;;;;;14.91;44.99;98733.84;7347013;26;20308;-80
2024/04/18 14:40:39;;;;;;;2.60;2.40;;;;;;;13.91;46.65;98736.56;7355445;26;20279;-81
2024/04/18 14:44:02;;;;;;;2.20;2.00;;;;;;;13.17;49.15;98757.56;7352517;26;20236;-82
2024/04/18 14:47:28;;;;;;;2.20;2.00;;;;;;;13.29;49.41;98763.91;7356543;26;20242;-79
2024/04/18 14:50:54;;;;;;;2.00;1.90;;;;;;;12.85;47.82;98776.78;7355644;26;20576;-80
2024/04/18 14:54:18;;;;;;;3.20;3.00;;;;;;;13.02;48.79;98765.22;7356856;26;20573;-79
2024/04/18 14:57:41;;;;;;;2.20;2.00;;;;;;;13.26;48.55;98783.34;7355195;26;20228;-79
2024/04/18 15:01:05;;;;;;;2.00;1.90;;;;;;;13.78;47.92;98777.38;7341715;26;20245;-80
2024/04/18 15:04:31;;;;;;;2.00;1.90;;;;;;;13.73;49.88;98788.06;7361880;26;20235;-80
2024/04/18 15:07:56;;;;;;;2.00;1.90;;;;;;;13.37;48.11;98755.53;7351597;26;20242;-83
2024/04/18 15:11:19;;;;;;;2.40;1.97;;;;;;;13.79;48.90;98786.31;7352641;26;20294;-81
2024/04/18 15:14:42;;;;;;;2.30;2.17;;;;;;;13.68;48.48;98782.47;7373275;26;20295;-80
2024/04/18 15:18:05;;;;;;;2.30;2.20;;;;;;;14.39;47.70;98779.97;7363904;26;20609;-82
2024/04/18 15:21:32;;;;;;;2.43;2.23;;;;;;;13.91;48.78;98792.63;7358606;26;20296;-80
2024/04/18 15:24:55;;;;;;;2.30;2.20;;;;;;;13.36;48.82;98802.63;7344500;26;20245;-81
2024/04/18 15:28:18;;;;;;;2.37;2.10;;;;;;;13.97;49.20;98787.16;7354989;26;20264;-81
2024/04/18 15:31:43;;;;;;;2.00;1.90;;;;;;;14.00;48.14;98808.41;7346656;26;20267;-80
2024/04/18 15:35:06;;;;;;;2.43;2.23;;;;;;;14.10;48.27;98807.84;7356291;26;20246;-81
2024/04/18 15:38:32;;;;;;;2.43;2.27;;;;;;;13.73;48.21;98814.31;7356649;26;20847;-82
2024/04/18 15:41:55;;;;;;;2.83;2.63;;;;;;;14.01;46.59;98810.03;7354934;26;20295;-81
2024/04/18 15:45:18;;;;;;;2.60;2.40;;;;;;;14.09;46.63;98819.75;7359933;26;20261;-80
2024/04/18 15:48:41;;;;;;;3.70;2.50;;;;;;;13.37;46.28;98801.56;7355088;26;20235;-82
2024/04/18 15:52:05;;;;;;;2.20;2.10;;;;;;;13.31;47.08;98826.81;7355051;26;20248;-80
2024/04/18 15:55:32;;;;;;;2.30;2.10;;;;;;;13.88;46.07;98812.91;7353343;26;20748;-81
2024/04/18 15:58:55;;;;;;;2.40;2.20;;;;;;;14.06;45.87;98820.19;7351234;26;20269;-80